Time;durP1;ratioP1;P1;durP2;ratioP2;P2;SDS_P1;SDS_P2;PMS_P1;PMS_P2;Temp;Humidity;BMP_temperature;BMP_pressure;BME280_temperature;BME280_humidity;BME280_pressure;Samples;Min_cycle;Max_cycle;Signal;HPM_P1;HPM_P2
2023/05/19 00:04:13;;;;;;;;;;;;;;;9.38;81.85;100555.81;437961;1251;139448;-63
2023/05/19 00:14:20;;;;;;;6.50;5.20;;;;;;;9.34;82.25;100552.88;436602;1251;127859;-62
2023/05/19 00:24:26;;;;;;;8.40;5.80;;;;;;;9.28;82.61;100546.14;437096;1253;140972;-63
2023/05/19 00:34:31;;;;;;;7.70;5.50;;;;;;;9.27;82.99;100545.49;436302;1253;139185;-62
2023/05/19 00:44:40;;;;;;;6.50;5.10;;;;;;;9.28;83.33;100542.14;436516;1251;140112;-62
2023/05/19 00:54:46;;;;;;;5.50;5.00;;;;;;;9.26;83.78;100537.83;436449;1251;140096;-62
2023/05/19 01:04:55;;;;;;;6.60;5.90;;;;;;;9.25;84.14;100533.17;436388;1253;139324;-62
2023/05/19 01:15:01;;;;;;;6.20;5.10;;;;;;;9.24;84.63;100536.50;436629;1253;140323;-62
2023/05/19 01:25:43;;;;;;;6.50;5.90;;;;;;;9.24;85.03;100535.46;436531;1253;139773;-63
2023/05/19 01:35:50;;;;;;;7.70;5.00;;;;;;;9.19;85.15;100545.84;436886;1251;140450;-63
2023/05/19 01:45:57;;;;;;;7.80;5.70;;;;;;;9.14;84.86;100545.20;436580;1253;139308;-63
2023/05/19 01:56:04;;;;;;;8.30;5.70;;;;;;;9.08;84.83;100547.67;436925;1253;139704;-61
2023/05/19 02:06:22;;;;;;;6.10;5.20;;;;;;;9.08;84.94;100544.89;437075;1253;139087;-64
2023/05/19 02:16:30;;;;;;;5.30;4.80;;;;;;;9.05;85.41;100531.38;436488;1253;139946;-62
2023/05/19 02:26:35;;;;;;;5.70;5.10;;;;;;;8.95;86.44;100524.98;436849;1253;139568;-62
2023/05/19 02:36:42;;;;;;;8.50;6.10;;;;;;;8.86;87.02;100519.61;436765;1253;140464;-63
2023/05/19 02:46:48;;;;;;;7.10;5.80;;;;;;;8.81;87.51;100510.90;437133;1253;139444;-63
2023/05/19 02:56:54;;;;;;;6.90;6.00;;;;;;;8.82;87.96;100512.45;436712;1253;138621;-63
2023/05/19 03:07:01;;;;;;;7.00;6.30;;;;;;;8.82;88.46;100512.08;436369;1251;139166;-63
2023/05/19 03:17:08;;;;;;;10.00;9.10;;;;;;;8.89;89.02;100510.61;436260;1253;138648;-62
2023/05/19 03:27:15;;;;;;;9.10;8.20;;;;;;;8.88;89.23;100503.62;438992;1253;139421;-62
2023/05/19 03:37:21;;;;;;;10.30;9.30;;;;;;;8.90;89.63;100508.80;436437;1255;139330;-63
2023/05/19 03:47:27;;;;;;;9.20;6.80;;;;;;;8.92;89.84;100512.88;436164;1253;139245;-63
2023/05/19 03:57:33;;;;;;;8.50;7.50;;;;;;;8.98;89.99;100511.09;436413;1253;139502;-62
2023/05/19 04:07:39;;;;;;;7.70;6.90;;;;;;;9.06;90.02;100509.71;436434;1253;140536;-62
2023/05/19 04:17:45;;;;;;;5.00;4.10;;;;;;;9.14;89.18;100518.09;436620;1253;140128;-62
2023/05/19 04:27:51;;;;;;;3.60;3.00;;;;;;;9.23;87.41;100527.48;436219;1253;140513;-62
2023/05/19 04:37:57;;;;;;;4.50;3.30;;;;;;;9.30;86.26;100524.76;436557;1253;139310;-63
2023/05/19 04:48:04;;;;;;;4.60;3.60;;;;;;;9.35;85.68;100522.60;436745;1253;139054;-62
2023/05/19 04:58:10;;;;;;;3.90;3.20;;;;;;;9.52;85.35;100515.56;437129;1253;139478;-62
2023/05/19 05:08:21;;;;;;;3.90;3.10;;;;;;;9.71;84.76;100520.98;436664;1251;139652;-62
2023/05/19 05:18:28;;;;;;;3.40;2.90;;;;;;;9.91;84.20;100516.23;436718;1253;139797;-62
2023/05/19 05:28:34;;;;;;;4.60;3.60;;;;;;;9.99;83.70;100512.77;436455;1253;140675;-62
2023/05/19 05:38:39;;;;;;;4.90;2.20;;;;;;;10.10;83.24;100509.61;436282;1253;138607;-62
2023/05/19 05:48:47;;;;;;;3.20;1.70;;;;;;;10.21;82.44;100513.64;436307;1254;139520;-63
2023/05/19 05:58:52;;;;;;;5.30;2.10;;;;;;;10.48;82.08;100508.68;439853;1251;139546;-63
2023/05/19 06:08:58;;;;;;;2.80;1.70;;;;;;;10.74;81.07;100506.02;436459;1254;139520;-63
2023/05/19 06:19:04;;;;;;;2.60;2.30;;;;;;;10.85;80.11;100510.76;436599;1253;140135;-62
2023/05/19 06:29:10;;;;;;;7.00;2.10;;;;;;;10.99;79.65;100514.40;437646;1251;139814;-63
2023/05/19 06:39:16;;;;;;;4.30;1.90;;;;;;;11.02;79.08;100527.92;436840;1252;138979;-62
2023/05/19 06:49:22;;;;;;;4.30;2.80;;;;;;;11.03;78.78;100520.88;436781;1253;139413;-62
2023/05/19 06:59:28;;;;;;;3.10;2.00;;;;;;;10.96;78.79;100520.71;436693;1252;140539;-62
2023/05/19 07:09:34;;;;;;;3.30;3.00;;;;;;;11.10;78.85;100515.23;436493;1254;143525;-63
2023/05/19 07:19:40;;;;;;;5.10;2.80;;;;;;;11.59;78.23;100519.39;436458;1253;154735;-62
2023/05/19 07:29:46;;;;;;;4.20;3.10;;;;;;;11.51;77.19;100522.64;436415;1251;140033;-63
2023/05/19 07:39:51;;;;;;;3.40;2.40;;;;;;;11.23;77.59;100520.91;436834;1253;141106;-62
2023/05/19 07:49:57;;;;;;;4.30;2.60;;;;;;;11.15;77.71;100531.16;436962;1253;138936;-63
2023/05/19 08:00:06;;;;;;;2.10;1.70;;;;;;;11.08;77.51;100532.71;436910;1251;139574;-63
2023/05/19 08:10:12;;;;;;;3.00;2.20;;;;;;;11.05;77.63;100525.13;437489;1251;139366;-63
2023/05/19 08:20:19;;;;;;;3.60;2.50;;;;;;;11.57;77.51;100516.27;437272;1253;139169;-63
2023/05/19 08:30:25;;;;;;;2.90;2.60;;;;;;;12.13;75.93;100511.05;437667;1251;141369;-64
2023/05/19 08:40:31;;;;;;;2.30;2.10;;;;;;;12.35;75.35;100521.43;437351;1251;139911;-63
2023/05/19 08:50:42;;;;;;;4.00;2.20;;;;;;;12.60;74.29;100514.42;437787;1251;139371;-64
2023/05/19 09:00:49;;;;;;;2.80;2.00;;;;;;;12.29;74.05;100521.61;438406;1251;138958;-63
2023/05/19 09:10:55;;;;;;;4.10;2.20;;;;;;;11.87;74.27;100519.45;438172;1251;140109;-63
2023/05/19 09:21:02;;;;;;;2.00;1.80;;;;;;;11.72;74.93;100511.13;437364;1253;139025;-62
2023/05/19 09:31:09;;;;;;;3.60;3.10;;;;;;;11.85;74.98;100517.66;437276;1251;140644;-64
2023/05/19 09:41:16;;;;;;;3.20;2.80;;;;;;;11.68;75.28;100524.33;437863;1253;193543;-62
2023/05/19 09:51:22;;;;;;;3.50;3.20;;;;;;;11.65;75.56;100513.47;437307;1253;140259;-64
2023/05/19 10:01:29;;;;;;;5.60;3.70;;;;;;;11.55;75.69;100518.51;437174;1253;138930;-62
2023/05/19 10:11:35;;;;;;;5.30;3.80;;;;;;;11.53;76.07;100518.48;437581;1251;139199;-63
2023/05/19 10:21:41;;;;;;;3.90;3.50;;;;;;;11.73;76.08;100502.84;437536;1250;139524;-63
2023/05/19 10:31:50;;;;;;;5.60;5.10;;;;;;;11.77;75.91;100498.59;437566;1251;139397;-63
2023/05/19 10:42:05;;;;;;;5.90;5.30;;;;;;;12.06;75.60;100499.70;437432;1250;139261;-63
2023/05/19 10:52:24;;;;;;;7.40;4.90;;;;;;;12.29;75.39;100503.52;437442;1251;139659;-62
2023/05/19 11:02:41;;;;;;;4.20;3.80;;;;;;;12.31;74.91;100503.23;438877;1250;139833;-64
2023/05/19 11:12:47;;;;;;;9.70;6.50;;;;;;;12.07;75.31;100508.91;437646;1253;138941;-61
2023/05/19 11:23:10;;;;;;;6.50;5.90;;;;;;;11.97;75.79;100510.67;436803;1251;138902;-64
2023/05/19 11:33:18;;;;;;;7.10;6.20;;;;;;;12.03;75.89;100510.05;437135;1251;138802;-63
2023/05/19 11:43:27;;;;;;;8.70;7.50;;;;;;;12.06;75.86;100510.58;437141;1250;139490;-64
2023/05/19 11:53:35;;;;;;;7.10;6.40;;;;;;;12.13;75.84;100514.79;436719;1251;140838;-63
2023/05/19 12:03:41;;;;;;;7.80;6.30;;;;;;;12.43;75.62;100512.56;437330;1249;140834;-63
2023/05/19 12:13:49;;;;;;;6.90;5.80;;;;;;;12.43;75.39;100509.42;437231;1249;139627;-63
2023/05/19 12:23:55;;;;;;;6.30;5.40;;;;;;;12.55;75.19;100508.17;437265;1253;140116;-63
2023/05/19 12:34:01;;;;;;;8.20;6.70;;;;;;;12.53;75.17;100500.55;436919;1253;141202;-62
2023/05/19 12:44:17;;;;;;;8.60;7.10;;;;;;;12.81;74.88;100504.44;437233;1249;139496;-64
2023/05/19 12:54:23;;;;;;;9.70;6.70;;;;;;;13.35;74.29;100502.77;437292;1251;139811;-64
2023/05/19 13:04:29;;;;;;;7.20;6.20;;;;;;;13.40;73.41;100502.35;439843;1250;139986;-62
2023/05/19 13:14:36;;;;;;;6.70;6.00;;;;;;;12.98;73.76;100496.74;437379;1251;139091;-66
2023/05/19 13:24:42;;;;;;;11.20;7.30;;;;;;;12.75;74.12;100500.20;437843;1251;140645;-67
2023/05/19 13:34:48;;;;;;;9.70;8.10;;;;;;;12.54;74.61;100491.89;437137;1252;139401;-66
2023/05/19 13:44:57;;;;;;;9.10;7.50;;;;;;;12.69;74.93;100493.13;437062;1248;138983;-67
2023/05/19 13:55:03;;;;;;;10.60;8.70;;;;;;;12.71;74.64;100493.23;437364;1253;138897;-67
2023/05/19 14:05:09;;;;;;;9.60;8.40;;;;;;;12.58;75.13;100489.72;437076;1253;140738;-67
2023/05/19 14:15:15;;;;;;;12.10;9.30;;;;;;;12.61;75.61;100488.15;440557;1251;139041;-67
2023/05/19 14:25:22;;;;;;;14.90;7.60;;;;;;;12.65;75.71;100485.46;436967;1251;139196;-67
2023/05/19 14:35:28;;;;;;;11.80;9.60;;;;;;;12.91;75.34;100483.60;437054;1248;140376;-66
2023/05/19 14:45:34;;;;;;;12.50;10.80;;;;;;;12.69;75.36;100488.96;437052;1251;139941;-65
2023/05/19 14:55:40;;;;;;;14.30;11.20;;;;;;;12.38;76.24;100489.88;437357;1248;139546;-66
2023/05/19 15:05:45;;;;;;;13.40;10.30;;;;;;;12.35;76.54;100495.65;437164;1251;140020;-66
2023/05/19 15:15:55;;;;;;;14.90;11.90;;;;;;;12.33;77.03;100493.13;436722;1253;139233;-66
2023/05/19 15:26:21;;;;;;;13.40;9.80;;;;;;;12.47;77.08;100497.23;437120;1251;139647;-66
2023/05/19 15:36:27;;;;;;;11.70;10.40;;;;;;;12.44;77.07;100494.05;437302;1251;139663;-67
2023/05/19 15:46:33;;;;;;;14.50;10.70;;;;;;;12.34;77.34;100489.15;437546;1250;139623;-66
2023/05/19 15:56:39;;;;;;;14.50;10.90;;;;;;;12.14;77.79;100486.80;437502;1253;139442;-66
2023/05/19 16:06:45;;;;;;;14.70;11.80;;;;;;;12.04;78.26;100479.27;437338;1250;140203;-67
2023/05/19 16:16:51;;;;;;;14.60;11.40;;;;;;;12.05;78.68;100478.00;437210;1251;140959;-68
2023/05/19 16:26:57;;;;;;;12.70;10.40;;;;;;;12.07;78.81;100480.15;437415;1253;140897;-66
2023/05/19 16:37:03;;;;;;;16.80;11.50;;;;;;;12.04;79.02;100476.43;437071;1250;139933;-66
2023/05/19 16:47:09;;;;;;;13.50;12.00;;;;;;;12.04;79.39;100482.25;436918;1251;142575;-66
2023/05/19 16:57:15;;;;;;;16.40;13.00;;;;;;;11.94;79.54;100482.41;436649;1250;141960;-68
2023/05/19 17:07:20;;;;;;;14.70;11.10;;;;;;;11.82;80.04;100491.66;436577;1251;139728;-67
2023/05/19 17:17:27;;;;;;;18.50;11.80;;;;;;;11.73;80.35;100496.88;436895;1253;140420;-65
2023/05/19 17:27:33;;;;;;;16.20;10.90;;;;;;;11.74;80.61;100499.10;437046;1253;140170;-66
2023/05/19 17:37:39;;;;;;;16.10;11.70;;;;;;;11.67;80.99;100497.58;437140;1253;139431;-65
2023/05/19 17:47:44;;;;;;;12.00;10.80;;;;;;;11.61;81.69;100486.32;436938;1251;139205;-66
2023/05/19 17:57:51;;;;;;;12.80;10.00;;;;;;;11.59;82.15;100488.66;436962;1251;139716;-67
2023/05/19 18:07:58;;;;;;;15.50;11.60;;;;;;;11.53;82.64;100492.02;437084;1250;141134;-67
2023/05/19 18:18:06;;;;;;;12.00;10.70;;;;;;;11.42;83.23;100491.50;436866;1250;139871;-66
2023/05/19 18:28:12;;;;;;;17.60;13.90;;;;;;;11.43;83.69;100498.85;437173;1250;139984;-66
2023/05/19 18:38:18;;;;;;;21.30;14.20;;;;;;;11.43;84.27;100504.47;437058;1253;139196;-59
2023/05/19 18:48:24;;;;;;;13.40;11.50;;;;;;;11.38;84.77;100516.66;437198;1248;139933;-62
2023/05/19 18:58:30;;;;;;;21.20;13.60;;;;;;;11.34;85.30;100522.61;437082;1253;140705;-61
2023/05/19 19:08:36;;;;;;;17.20;12.90;;;;;;;11.29;86.02;100526.95;437298;1251;139876;-69
2023/05/19 19:18:42;;;;;;;20.60;15.00;;;;;;;11.24;86.76;100525.25;436329;1251;140711;-73
2023/05/19 19:28:48;;;;;;;18.20;16.00;;;;;;;11.20;87.39;100526.34;436196;1251;140016;-72
2023/05/19 19:38:53;;;;;;;23.50;16.70;;;;;;;11.19;88.00;100524.09;437440;1251;139523;-73
2023/05/19 19:49:00;;;;;;;26.50;17.90;;;;;;;11.15;88.84;100526.23;437240;1253;141853;-73
2023/05/19 19:59:06;;;;;;;20.10;16.60;;;;;;;11.05;91.06;100530.73;436870;1253;141011;-70
2023/05/19 20:09:12;;;;;;;23.40;19.10;;;;;;;11.03;91.97;100535.76;437015;1251;139740;-71
2023/05/19 20:19:17;;;;;;;23.70;17.40;;;;;;;11.02;92.60;100542.45;437118;1250;141242;-71
2023/05/19 20:29:23;;;;;;;28.40;19.30;;;;;;;11.05;92.98;100539.18;437069;1250;140205;-71
2023/05/19 20:39:30;;;;;;;28.20;19.50;;;;;;;11.06;93.25;100544.02;436592;1253;139414;-72
2023/05/19 20:49:36;;;;;;;25.60;19.30;;;;;;;11.08;93.51;100545.15;436623;1253;140530;-70
2023/05/19 20:59:42;;;;;;;28.50;18.50;;;;;;;11.06;93.83;100537.00;436765;1251;140815;-71
2023/05/19 21:09:50;;;;;;;25.20;16.50;;;;;;;11.07;94.11;100537.49;437015;1252;140870;-72
2023/05/19 21:19:58;;;;;;;22.30;17.80;;;;;;;11.11;94.31;100541.88;436835;1251;140854;-70
2023/05/19 21:30:05;;;;;;;22.60;17.80;;;;;;;11.12;94.57;100543.73;436936;1253;139890;-70
2023/05/19 21:40:12;;;;;;;18.30;14.90;;;;;;;11.12;94.62;100539.52;436661;1253;141589;-72
2023/05/19 21:50:18;;;;;;;21.10;16.60;;;;;;;11.12;94.82;100538.83;437278;1251;139410;-72
2023/05/19 22:00:24;;;;;;;18.50;16.20;;;;;;;11.13;94.96;100538.25;437250;1253;141109;-71
2023/05/19 22:10:30;;;;;;;23.40;15.30;;;;;;;11.13;95.12;100534.92;437193;1253;141030;-71
2023/05/19 22:20:37;;;;;;;19.10;15.80;;;;;;;11.14;95.32;100528.90;437546;1253;140267;-72
2023/05/19 22:30:43;;;;;;;23.60;17.30;;;;;;;11.14;95.43;100527.34;437351;1253;140337;-71
2023/05/19 22:40:49;;;;;;;20.70;16.00;;;;;;;11.11;95.82;100527.66;437031;1251;140188;-71
2023/05/19 22:50:55;;;;;;;17.90;14.40;;;;;;;11.11;95.94;100523.80;437196;1253;140562;-72
2023/05/19 23:01:01;;;;;;;18.30;14.90;;;;;;;11.14;96.07;100531.02;436845;1249;139918;-70
2023/05/19 23:11:07;;;;;;;17.80;15.40;;;;;;;11.16;96.18;100518.81;436838;1248;141242;-72
2023/05/19 23:21:13;;;;;;;18.70;15.90;;;;;;;11.17;96.28;100516.50;437065;1253;140835;-71
2023/05/19 23:31:19;;;;;;;21.50;17.10;;;;;;;11.16;96.35;100517.59;437391;1253;140492;-70
2023/05/19 23:41:25;;;;;;;23.80;18.40;;;;;;;11.13;96.49;100522.99;437136;1253;140895;-71
2023/05/19 23:51:31;;;;;;;23.40;18.30;;;;;;;11.15;96.47;100520.10;437460;1253;139395;-72
